sensor_id;sensor_type;location;lat;lon;timestamp;pressure;altitude;pressure_sealevel;temperature;humidity
5413;BME280;2729;50.056;8.678;2023-04-29T00:01:30;99923.34;;;13.61;100.00
5413;BME280;2729;50.056;8.678;2023-04-29T00:03:56;99923.69;;;13.54;100.00
5413;BME280;2729;50.056;8.678;2023-04-29T00:06:22;99916.66;;;13.54;100.00
5413;BME280;2729;50.056;8.678;2023-04-29T00:08:48;99920.66;;;13.63;100.00
5413;BME280;2729;50.056;8.678;2023-04-29T00:11:14;99923.56;;;13.57;100.00
5413;BME280;2729;50.056;8.678;2023-04-29T00:13:40;99922.25;;;13.46;100.00
5413;BME280;2729;50.056;8.678;2023-04-29T00:16:07;99937.00;;;13.49;100.00
5413;BME280;2729;50.056;8.678;2023-04-29T00:18:34;99937.13;;;13.46;100.00
5413;BME280;2729;50.056;8.678;2023-04-29T00:21:02;99929.50;;;13.40;100.00
5413;BME280;2729;50.056;8.678;2023-04-29T00:23:32;99938.03;;;13.45;100.00
5413;BME280;2729;50.056;8.678;2023-04-29T00:25:58;99930.38;;;13.40;100.00
5413;BME280;2729;50.056;8.678;2023-04-29T00:28:24;99932.38;;;13.34;100.00
5413;BME280;2729;50.056;8.678;2023-04-29T00:30:50;99931.97;;;13.23;100.00
5413;BME280;2729;50.056;8.678;2023-04-29T00:33:16;99932.25;;;13.16;100.00
5413;BME280;2729;50.056;8.678;2023-04-29T00:35:42;99931.25;;;13.19;100.00
5413;BME280;2729;50.056;8.678;2023-04-29T00:38:08;99931.19;;;13.21;100.00
5413;BME280;2729;50.056;8.678;2023-04-29T00:40:34;99930.63;;;13.12;100.00
5413;BME280;2729;50.056;8.678;2023-04-29T00:43:00;99928.13;;;13.09;100.00
5413;BME280;2729;50.056;8.678;2023-04-29T00:45:26;99920.00;;;13.15;100.00
5413;BME280;2729;50.056;8.678;2023-04-29T00:47:52;99929.38;;;12.99;100.00
5413;BME280;2729;50.056;8.678;2023-04-29T00:50:18;99935.88;;;13.12;100.00
5413;BME280;2729;50.056;8.678;2023-04-29T00:52:44;99936.38;;;13.00;100.00
5413;BME280;2729;50.056;8.678;2023-04-29T00:55:10;99929.34;;;13.01;100.00
5413;BME280;2729;50.056;8.678;2023-04-29T00:57:37;99932.91;;;12.98;100.00
5413;BME280;2729;50.056;8.678;2023-04-29T01:00:04;99936.56;;;12.94;100.00
5413;BME280;2729;50.056;8.678;2023-04-29T01:02:30;99932.00;;;12.99;100.00
5413;BME280;2729;50.056;8.678;2023-04-29T01:04:56;99935.97;;;12.87;100.00
5413;BME280;2729;50.056;8.678;2023-04-29T01:07:41;99935.34;;;12.81;100.00
5413;BME280;2729;50.056;8.678;2023-04-29T01:10:17;99941.09;;;12.91;100.00
5413;BME280;2729;50.056;8.678;2023-04-29T01:12:49;99939.38;;;12.89;100.00
5413;BME280;2729;50.056;8.678;2023-04-29T01:15:53;99932.50;;;12.65;100.00
5413;BME280;2729;50.056;8.678;2023-04-29T01:18:27;99939.13;;;12.74;100.00
5413;BME280;2729;50.056;8.678;2023-04-29T01:20:57;99937.31;;;12.76;100.00
5413;BME280;2729;50.056;8.678;2023-04-29T01:23:27;99939.91;;;12.76;100.00
5413;BME280;2729;50.056;8.678;2023-04-29T01:25:54;99947.41;;;12.85;100.00
5413;BME280;2729;50.056;8.678;2023-04-29T01:29:39;99943.41;;;12.76;100.00
5413;BME280;2729;50.056;8.678;2023-04-29T01:32:05;99932.84;;;12.78;100.00
5413;BME280;2729;50.056;8.678;2023-04-29T01:34:49;99934.00;;;12.93;100.00
5413;BME280;2729;50.056;8.678;2023-04-29T01:37:30;99940.28;;;12.88;100.00
5413;BME280;2729;50.056;8.678;2023-04-29T01:40:11;99942.34;;;13.04;100.00
5413;BME280;2729;50.056;8.678;2023-04-29T01:45:25;99942.03;;;13.11;100.00
5413;BME280;2729;50.056;8.678;2023-04-29T01:47:52;99943.50;;;13.18;100.00
5413;BME280;2729;50.056;8.678;2023-04-29T01:50:21;99951.53;;;13.14;100.00
5413;BME280;2729;50.056;8.678;2023-04-29T01:52:46;99940.88;;;13.18;100.00
5413;BME280;2729;50.056;8.678;2023-04-29T01:55:13;99942.09;;;13.10;100.00
5413;BME280;2729;50.056;8.678;2023-04-29T01:57:47;99950.25;;;13.02;100.00
5413;BME280;2729;50.056;8.678;2023-04-29T02:00:28;99946.72;;;13.03;100.00
5413;BME280;2729;50.056;8.678;2023-04-29T02:02:54;99944.22;;;13.00;100.00
5413;BME280;2729;50.056;8.678;2023-04-29T02:05:35;99950.88;;;12.85;100.00
5413;BME280;2729;50.056;8.678;2023-04-29T02:08:02;99956.81;;;12.91;100.00
5413;BME280;2729;50.056;8.678;2023-04-29T02:10:30;99955.22;;;12.86;100.00
5413;BME280;2729;50.056;8.678;2023-04-29T02:13:10;99951.81;;;12.84;100.00
5413;BME280;2729;50.056;8.678;2023-04-29T02:15:38;99957.66;;;12.91;100.00
5413;BME280;2729;50.056;8.678;2023-04-29T02:18:04;99956.06;;;12.87;100.00
5413;BME280;2729;50.056;8.678;2023-04-29T02:20:30;99952.41;;;12.69;100.00
5413;BME280;2729;50.056;8.678;2023-04-29T02:22:56;99957.16;;;12.81;100.00
5413;BME280;2729;50.056;8.678;2023-04-29T02:25:22;99962.22;;;12.86;100.00
5413;BME280;2729;50.056;8.678;2023-04-29T02:27:48;99965.19;;;12.77;100.00
5413;BME280;2729;50.056;8.678;2023-04-29T02:30:14;99967.09;;;12.95;100.00
5413;BME280;2729;50.056;8.678;2023-04-29T02:32:40;99965.38;;;12.94;100.00
5413;BME280;2729;50.056;8.678;2023-04-29T02:35:06;99970.81;;;12.89;100.00
5413;BME280;2729;50.056;8.678;2023-04-29T02:37:33;99970.63;;;12.94;100.00
5413;BME280;2729;50.056;8.678;2023-04-29T02:40:00;99965.31;;;12.96;100.00
5413;BME280;2729;50.056;8.678;2023-04-29T02:42:26;99976.44;;;13.02;100.00
5413;BME280;2729;50.056;8.678;2023-04-29T02:44:52;99976.94;;;13.12;100.00
5413;BME280;2729;50.056;8.678;2023-04-29T02:47:18;99974.38;;;13.10;100.00
5413;BME280;2729;50.056;8.678;2023-04-29T02:49:44;99974.09;;;13.18;100.00
5413;BME280;2729;50.056;8.678;2023-04-29T02:52:11;99973.66;;;13.07;100.00
5413;BME280;2729;50.056;8.678;2023-04-29T02:54:37;99977.78;;;13.12;100.00
5413;BME280;2729;50.056;8.678;2023-04-29T02:57:03;99973.41;;;13.13;100.00
5413;BME280;2729;50.056;8.678;2023-04-29T02:59:30;99981.31;;;13.11;100.00
5413;BME280;2729;50.056;8.678;2023-04-29T03:01:56;99980.34;;;13.14;100.00
5413;BME280;2729;50.056;8.678;2023-04-29T03:04:22;99975.28;;;13.09;100.00
5413;BME280;2729;50.056;8.678;2023-04-29T03:06:49;99979.16;;;13.23;100.00
5413;BME280;2729;50.056;8.678;2023-04-29T03:09:15;99966.59;;;13.31;100.00
5413;BME280;2729;50.056;8.678;2023-04-29T03:11:44;99978.47;;;13.39;100.00
5413;BME280;2729;50.056;8.678;2023-04-29T03:14:10;99970.84;;;13.33;100.00
5413;BME280;2729;50.056;8.678;2023-04-29T03:16:36;99972.50;;;13.36;100.00
5413;BME280;2729;50.056;8.678;2023-04-29T03:19:03;99973.41;;;13.35;100.00
5413;BME280;2729;50.056;8.678;2023-04-29T03:21:28;99971.00;;;13.50;100.00
5413;BME280;2729;50.056;8.678;2023-04-29T03:23:54;99964.25;;;13.45;100.00
5413;BME280;2729;50.056;8.678;2023-04-29T03:26:26;99969.94;;;13.34;100.00
5413;BME280;2729;50.056;8.678;2023-04-29T03:28:52;99975.34;;;13.51;100.00
5413;BME280;2729;50.056;8.678;2023-04-29T03:31:18;99971.19;;;13.46;100.00
5413;BME280;2729;50.056;8.678;2023-04-29T03:33:45;99971.34;;;13.43;100.00
5413;BME280;2729;50.056;8.678;2023-04-29T03:36:11;99975.38;;;13.30;100.00
5413;BME280;2729;50.056;8.678;2023-04-29T03:38:58;99983.47;;;13.24;100.00
5413;BME280;2729;50.056;8.678;2023-04-29T03:41:24;99975.38;;;13.30;100.00
5413;BME280;2729;50.056;8.678;2023-04-29T03:43:50;99989.25;;;13.32;100.00
5413;BME280;2729;50.056;8.678;2023-04-29T03:46:16;99983.41;;;13.25;100.00
5413;BME280;2729;50.056;8.678;2023-04-29T03:48:42;99976.69;;;13.40;100.00
5413;BME280;2729;50.056;8.678;2023-04-29T03:51:08;99986.47;;;13.57;100.00
5413;BME280;2729;50.056;8.678;2023-04-29T03:53:34;99986.03;;;13.67;100.00
5413;BME280;2729;50.056;8.678;2023-04-29T03:56:03;99983.47;;;13.66;100.00
5413;BME280;2729;50.056;8.678;2023-04-29T03:58:29;99988.94;;;13.81;100.00
5413;BME280;2729;50.056;8.678;2023-04-29T04:00:55;99990.38;;;13.89;100.00
5413;BME280;2729;50.056;8.678;2023-04-29T04:03:26;99993.25;;;13.82;100.00
5413;BME280;2729;50.056;8.678;2023-04-29T04:05:55;99993.91;;;13.88;100.00
5413;BME280;2729;50.056;8.678;2023-04-29T04:08:21;100002.03;;;13.81;100.00
5413;BME280;2729;50.056;8.678;2023-04-29T04:10:53;100005.06;;;13.93;100.00
5413;BME280;2729;50.056;8.678;2023-04-29T04:13:31;100008.28;;;13.99;100.00
5413;BME280;2729;50.056;8.678;2023-04-29T04:15:58;100004.06;;;13.95;100.00
5413;BME280;2729;50.056;8.678;2023-04-29T04:18:24;100013.84;;;13.92;100.00
5413;BME280;2729;50.056;8.678;2023-04-29T04:20:50;100015.94;;;14.04;100.00
5413;BME280;2729;50.056;8.678;2023-04-29T04:23:16;100020.81;;;13.93;100.00
5413;BME280;2729;50.056;8.678;2023-04-29T04:25:45;100026.56;;;14.01;100.00
5413;BME280;2729;50.056;8.678;2023-04-29T04:28:37;100025.38;;;13.88;100.00
5413;BME280;2729;50.056;8.678;2023-04-29T04:31:08;100025.78;;;13.78;100.00
5413;BME280;2729;50.056;8.678;2023-04-29T04:33:34;100030.78;;;14.05;100.00
5413;BME280;2729;50.056;8.678;2023-04-29T04:36:01;100044.53;;;14.10;100.00
5413;BME280;2729;50.056;8.678;2023-04-29T04:38:27;100042.84;;;13.89;100.00
5413;BME280;2729;50.056;8.678;2023-04-29T04:40:53;100044.28;;;13.96;100.00
5413;BME280;2729;50.056;8.678;2023-04-29T04:43:26;100048.09;;;13.89;100.00
5413;BME280;2729;50.056;8.678;2023-04-29T04:45:52;100049.66;;;13.93;100.00
5413;BME280;2729;50.056;8.678;2023-04-29T04:48:18;100053.41;;;13.87;100.00
5413;BME280;2729;50.056;8.678;2023-04-29T04:50:48;100048.47;;;13.79;100.00
5413;BME280;2729;50.056;8.678;2023-04-29T04:53:14;100047.03;;;13.72;100.00
5413;BME280;2729;50.056;8.678;2023-04-29T04:55:54;100056.22;;;13.82;100.00
5413;BME280;2729;50.056;8.678;2023-04-29T04:58:20;100062.25;;;13.84;100.00
5413;BME280;2729;50.056;8.678;2023-04-29T05:00:47;100066.44;;;13.89;100.00
5413;BME280;2729;50.056;8.678;2023-04-29T05:03:13;100062.84;;;13.91;100.00
5413;BME280;2729;50.056;8.678;2023-04-29T05:05:39;100064.63;;;13.91;100.00
5413;BME280;2729;50.056;8.678;2023-04-29T05:08:04;100069.13;;;13.87;100.00
5413;BME280;2729;50.056;8.678;2023-04-29T05:10:38;100065.09;;;14.00;100.00
5413;BME280;2729;50.056;8.678;2023-04-29T05:13:06;100071.91;;;14.25;100.00
5413;BME280;2729;50.056;8.678;2023-04-29T05:15:34;100069.47;;;14.20;100.00
5413;BME280;2729;50.056;8.678;2023-04-29T05:18:00;100073.47;;;14.29;100.00
5413;BME280;2729;50.056;8.678;2023-04-29T05:20:26;100072.16;;;14.19;100.00
5413;BME280;2729;50.056;8.678;2023-04-29T05:22:54;100076.03;;;14.10;100.00
5413;BME280;2729;50.056;8.678;2023-04-29T05:25:20;100084.13;;;14.46;100.00
5413;BME280;2729;50.056;8.678;2023-04-29T05:27:46;100080.38;;;14.52;100.00
5413;BME280;2729;50.056;8.678;2023-04-29T05:30:16;100086.63;;;14.49;100.00
5413;BME280;2729;50.056;8.678;2023-04-29T05:32:43;100082.47;;;14.64;100.00
5413;BME280;2729;50.056;8.678;2023-04-29T05:35:14;100088.13;;;14.34;100.00
5413;BME280;2729;50.056;8.678;2023-04-29T05:37:40;100090.53;;;14.39;100.00
5413;BME280;2729;50.056;8.678;2023-04-29T05:40:30;100092.00;;;14.46;100.00
5413;BME280;2729;50.056;8.678;2023-04-29T05:43:12;100098.34;;;14.61;100.00
5413;BME280;2729;50.056;8.678;2023-04-29T05:45:38;100104.81;;;14.54;100.00
5413;BME280;2729;50.056;8.678;2023-04-29T05:48:05;100112.47;;;14.58;100.00
5413;BME280;2729;50.056;8.678;2023-04-29T05:50:31;100113.66;;;14.31;100.00
5413;BME280;2729;50.056;8.678;2023-04-29T05:52:56;100116.88;;;14.37;100.00
5413;BME280;2729;50.056;8.678;2023-04-29T05:55:24;100116.47;;;14.26;100.00
5413;BME280;2729;50.056;8.678;2023-04-29T05:57:50;100124.59;;;14.40;100.00
5413;BME280;2729;50.056;8.678;2023-04-29T06:00:17;100127.88;;;14.25;100.00
5413;BME280;2729;50.056;8.678;2023-04-29T06:02:43;100123.72;;;14.62;100.00
5413;BME280;2729;50.056;8.678;2023-04-29T06:05:11;100123.91;;;14.57;100.00
5413;BME280;2729;50.056;8.678;2023-04-29T06:07:52;100127.94;;;14.85;100.00
5413;BME280;2729;50.056;8.678;2023-04-29T06:10:40;100139.41;;;14.63;100.00
5413;BME280;2729;50.056;8.678;2023-04-29T06:13:06;100138.03;;;14.94;100.00
5413;BME280;2729;50.056;8.678;2023-04-29T06:15:32;100145.31;;;14.68;100.00
5413;BME280;2729;50.056;8.678;2023-04-29T06:17:58;100151.44;;;14.48;100.00
5413;BME280;2729;50.056;8.678;2023-04-29T06:20:23;100149.13;;;14.61;100.00
5413;BME280;2729;50.056;8.678;2023-04-29T06:22:49;100154.72;;;14.54;100.00
5413;BME280;2729;50.056;8.678;2023-04-29T06:25:15;100149.56;;;14.71;100.00
5413;BME280;2729;50.056;8.678;2023-04-29T06:27:47;100159.69;;;14.60;100.00
5413;BME280;2729;50.056;8.678;2023-04-29T06:30:15;100163.75;;;14.67;100.00
5413;BME280;2729;50.056;8.678;2023-04-29T06:32:41;100166.25;;;14.70;100.00
5413;BME280;2729;50.056;8.678;2023-04-29T06:35:07;100168.34;;;14.62;100.00
5413;BME280;2729;50.056;8.678;2023-04-29T06:37:50;100182.13;;;14.87;100.00
5413;BME280;2729;50.056;8.678;2023-04-29T06:40:36;100170.41;;;14.55;100.00
5413;BME280;2729;50.056;8.678;2023-04-29T06:43:28;100184.75;;;14.87;100.00
5413;BME280;2729;50.056;8.678;2023-04-29T06:46:24;100174.13;;;14.90;100.00
5413;BME280;2729;50.056;8.678;2023-04-29T06:49:03;100178.19;;;14.97;100.00
5413;BME280;2729;50.056;8.678;2023-04-29T06:51:31;100179.16;;;14.95;100.00
5413;BME280;2729;50.056;8.678;2023-04-29T06:53:58;100182.84;;;14.91;100.00
5413;BME280;2729;50.056;8.678;2023-04-29T06:56:23;100188.72;;;15.16;100.00
5413;BME280;2729;50.056;8.678;2023-04-29T06:58:50;100185.28;;;14.95;100.00
5413;BME280;2729;50.056;8.678;2023-04-29T07:01:16;100192.41;;;15.12;100.00
5413;BME280;2729;50.056;8.678;2023-04-29T07:03:42;100198.75;;;14.88;100.00
5413;BME280;2729;50.056;8.678;2023-04-29T07:06:08;100199.28;;;14.96;100.00
5413;BME280;2729;50.056;8.678;2023-04-29T07:08:34;100195.78;;;14.95;100.00
5413;BME280;2729;50.056;8.678;2023-04-29T07:11:00;100203.59;;;15.36;100.00
5413;BME280;2729;50.056;8.678;2023-04-29T07:13:26;100199.25;;;15.54;100.00
5413;BME280;2729;50.056;8.678;2023-04-29T07:15:52;100203.09;;;15.67;100.00
5413;BME280;2729;50.056;8.678;2023-04-29T07:18:18;100210.63;;;15.54;100.00
5413;BME280;2729;50.056;8.678;2023-04-29T07:20:44;100213.06;;;15.40;100.00
5413;BME280;2729;50.056;8.678;2023-04-29T07:23:10;100211.75;;;15.30;100.00
5413;BME280;2729;50.056;8.678;2023-04-29T07:25:36;100212.13;;;15.41;100.00
5413;BME280;2729;50.056;8.678;2023-04-29T07:28:04;100215.81;;;15.37;100.00
5413;BME280;2729;50.056;8.678;2023-04-29T07:30:30;100212.75;;;15.66;100.00
5413;BME280;2729;50.056;8.678;2023-04-29T07:32:56;100229.41;;;15.47;100.00
5413;BME280;2729;50.056;8.678;2023-04-29T07:35:23;100221.22;;;15.73;100.00
5413;BME280;2729;50.056;8.678;2023-04-29T07:37:49;100229.06;;;15.54;100.00
5413;BME280;2729;50.056;8.678;2023-04-29T07:40:15;100226.06;;;15.43;100.00
5413;BME280;2729;50.056;8.678;2023-04-29T07:42:41;100228.56;;;15.46;100.00
5413;BME280;2729;50.056;8.678;2023-04-29T07:45:08;100234.88;;;15.62;100.00
5413;BME280;2729;50.056;8.678;2023-04-29T07:47:34;100235.09;;;15.56;100.00
5413;BME280;2729;50.056;8.678;2023-04-29T07:50:00;100244.91;;;15.53;100.00
5413;BME280;2729;50.056;8.678;2023-04-29T07:52:26;100246.03;;;15.47;100.00
5413;BME280;2729;50.056;8.678;2023-04-29T07:54:52;100244.47;;;15.82;100.00
5413;BME280;2729;50.056;8.678;2023-04-29T07:57:21;100256.06;;;15.78;100.00
5413;BME280;2729;50.056;8.678;2023-04-29T07:59:53;100255.94;;;15.81;100.00
5413;BME280;2729;50.056;8.678;2023-04-29T08:02:19;100261.06;;;15.65;100.00
5413;BME280;2729;50.056;8.678;2023-04-29T08:04:46;100272.00;;;15.55;100.00
5413;BME280;2729;50.056;8.678;2023-04-29T08:07:12;100266.22;;;15.47;100.00
5413;BME280;2729;50.056;8.678;2023-04-29T08:09:39;100269.00;;;15.64;100.00
5413;BME280;2729;50.056;8.678;2023-04-29T08:12:05;100274.50;;;15.97;100.00
5413;BME280;2729;50.056;8.678;2023-04-29T08:14:31;100286.31;;;15.88;100.00
5413;BME280;2729;50.056;8.678;2023-04-29T08:16:59;100292.25;;;15.53;100.00
5413;BME280;2729;50.056;8.678;2023-04-29T08:19:25;100297.53;;;15.53;100.00
5413;BME280;2729;50.056;8.678;2023-04-29T08:21:51;100296.25;;;15.22;100.00
5413;BME280;2729;50.056;8.678;2023-04-29T08:24:17;100294.03;;;15.52;100.00
5413;BME280;2729;50.056;8.678;2023-04-29T08:26:43;100306.19;;;15.55;100.00
5413;BME280;2729;50.056;8.678;2023-04-29T08:29:09;100303.59;;;15.75;100.00
5413;BME280;2729;50.056;8.678;2023-04-29T08:31:35;100306.44;;;15.70;100.00
5413;BME280;2729;50.056;8.678;2023-04-29T08:34:01;100307.75;;;15.60;100.00
5413;BME280;2729;50.056;8.678;2023-04-29T08:36:27;100313.22;;;15.15;100.00
5413;BME280;2729;50.056;8.678;2023-04-29T08:38:54;100310.84;;;15.70;100.00
5413;BME280;2729;50.056;8.678;2023-04-29T08:41:20;100322.22;;;15.70;100.00
5413;BME280;2729;50.056;8.678;2023-04-29T08:43:46;100319.53;;;15.91;100.00
5413;BME280;2729;50.056;8.678;2023-04-29T08:46:12;100323.31;;;15.44;100.00
5413;BME280;2729;50.056;8.678;2023-04-29T08:48:38;100321.81;;;15.39;100.00
5413;BME280;2729;50.056;8.678;2023-04-29T08:51:07;100321.75;;;15.40;100.00
5413;BME280;2729;50.056;8.678;2023-04-29T08:53:36;100324.81;;;15.50;100.00
5413;BME280;2729;50.056;8.678;2023-04-29T08:56:08;100330.44;;;15.63;100.00
5413;BME280;2729;50.056;8.678;2023-04-29T08:58:37;100320.88;;;15.81;100.00
5413;BME280;2729;50.056;8.678;2023-04-29T09:01:09;100327.13;;;15.97;100.00
5413;BME280;2729;50.056;8.678;2023-04-29T09:06:09;100327.94;;;15.60;100.00
5413;BME280;2729;50.056;8.678;2023-04-29T09:08:36;100330.25;;;15.67;100.00
5413;BME280;2729;50.056;8.678;2023-04-29T09:11:03;100335.34;;;15.50;100.00
5413;BME280;2729;50.056;8.678;2023-04-29T09:13:30;100336.69;;;15.20;100.00
5413;BME280;2729;50.056;8.678;2023-04-29T09:15:56;100332.84;;;15.27;100.00
5413;BME280;2729;50.056;8.678;2023-04-29T09:18:49;100334.69;;;15.25;100.00
5413;BME280;2729;50.056;8.678;2023-04-29T09:23:43;100337.19;;;15.48;100.00
5413;BME280;2729;50.056;8.678;2023-04-29T09:26:10;100332.19;;;15.83;100.00
5413;BME280;2729;50.056;8.678;2023-04-29T09:28:36;100331.13;;;15.87;100.00
5413;BME280;2729;50.056;8.678;2023-04-29T09:31:02;100341.00;;;15.82;100.00
5413;BME280;2729;50.056;8.678;2023-04-29T09:33:31;100345.13;;;15.68;100.00
5413;BME280;2729;50.056;8.678;2023-04-29T09:35:57;100345.59;;;15.56;100.00
5413;BME280;2729;50.056;8.678;2023-04-29T09:38:23;100345.03;;;15.70;100.00
5413;BME280;2729;50.056;8.678;2023-04-29T09:40:50;100352.50;;;15.38;100.00
5413;BME280;2729;50.056;8.678;2023-04-29T09:43:18;100354.81;;;15.46;100.00
5413;BME280;2729;50.056;8.678;2023-04-29T09:45:45;100350.56;;;15.64;100.00
5413;BME280;2729;50.056;8.678;2023-04-29T09:48:12;100350.53;;;15.84;100.00
5413;BME280;2729;50.056;8.678;2023-04-29T09:50:40;100352.97;;;16.07;100.00
5413;BME280;2729;50.056;8.678;2023-04-29T09:53:07;100351.41;;;16.03;100.00
5413;BME280;2729;50.056;8.678;2023-04-29T09:55:34;100358.81;;;15.95;100.00
5413;BME280;2729;50.056;8.678;2023-04-29T09:58:01;100356.38;;;15.91;100.00
5413;BME280;2729;50.056;8.678;2023-04-29T10:00:30;100352.09;;;15.88;100.00
5413;BME280;2729;50.056;8.678;2023-04-29T10:03:00;100356.69;;;15.64;100.00
5413;BME280;2729;50.056;8.678;2023-04-29T10:05:29;100368.69;;;15.50;100.00
5413;BME280;2729;50.056;8.678;2023-04-29T10:07:57;100360.00;;;15.48;100.00
5413;BME280;2729;50.056;8.678;2023-04-29T10:10:24;100364.69;;;15.82;100.00
5413;BME280;2729;50.056;8.678;2023-04-29T10:12:52;100368.75;;;15.89;100.00
5413;BME280;2729;50.056;8.678;2023-04-29T10:15:28;100363.34;;;15.51;100.00
5413;BME280;2729;50.056;8.678;2023-04-29T10:18:18;100369.25;;;15.78;100.00
5413;BME280;2729;50.056;8.678;2023-04-29T10:20:46;100378.16;;;15.94;100.00
5413;BME280;2729;50.056;8.678;2023-04-29T10:23:13;100375.91;;;15.66;100.00
5413;BME280;2729;50.056;8.678;2023-04-29T10:25:41;100378.13;;;15.75;100.00
5413;BME280;2729;50.056;8.678;2023-04-29T10:28:11;100370.47;;;15.90;100.00
5413;BME280;2729;50.056;8.678;2023-04-29T10:30:41;100376.28;;;15.57;100.00
5413;BME280;2729;50.056;8.678;2023-04-29T10:33:10;100377.03;;;15.61;100.00
5413;BME280;2729;50.056;8.678;2023-04-29T10:35:36;100385.50;;;15.67;100.00
5413;BME280;2729;50.056;8.678;2023-04-29T10:38:12;100380.72;;;15.96;100.00
5413;BME280;2729;50.056;8.678;2023-04-29T10:40:44;100378.38;;;16.08;100.00
5413;BME280;2729;50.056;8.678;2023-04-29T10:43:11;100385.47;;;15.88;100.00
5413;BME280;2729;50.056;8.678;2023-04-29T10:45:38;100384.59;;;15.68;100.00
5413;BME280;2729;50.056;8.678;2023-04-29T10:48:07;100382.56;;;15.94;100.00
5413;BME280;2729;50.056;8.678;2023-04-29T10:53:13;100390.41;;;16.33;100.00
5413;BME280;2729;50.056;8.678;2023-04-29T10:55:40;100389.25;;;16.01;100.00
5413;BME280;2729;50.056;8.678;2023-04-29T11:01:09;100385.69;;;16.02;100.00
5413;BME280;2729;50.056;8.678;2023-04-29T11:03:50;100389.28;;;16.20;100.00
5413;BME280;2729;50.056;8.678;2023-04-29T11:06:22;100378.88;;;16.35;100.00
5413;BME280;2729;50.056;8.678;2023-04-29T11:09:07;100380.56;;;16.74;100.00
5413;BME280;2729;50.056;8.678;2023-04-29T11:14:34;100377.78;;;16.58;100.00
5413;BME280;2729;50.056;8.678;2023-04-29T11:17:07;100374.94;;;16.99;100.00
5413;BME280;2729;50.056;8.678;2023-04-29T11:19:36;100374.78;;;17.71;100.00
5413;BME280;2729;50.056;8.678;2023-04-29T11:24:57;100367.91;;;17.84;100.00
5413;BME280;2729;50.056;8.678;2023-04-29T11:27:28;100365.47;;;18.13;99.61
5413;BME280;2729;50.056;8.678;2023-04-29T11:29:56;100364.25;;;17.87;96.25
5413;BME280;2729;50.056;8.678;2023-04-29T11:32:33;100368.69;;;17.86;100.00
5413;BME280;2729;50.056;8.678;2023-04-29T11:35:07;100365.59;;;17.78;93.14
5413;BME280;2729;50.056;8.678;2023-04-29T11:37:33;100368.38;;;18.08;98.87
5413;BME280;2729;50.056;8.678;2023-04-29T11:40:00;100368.97;;;17.47;90.88
5413;BME280;2729;50.056;8.678;2023-04-29T11:42:26;100359.63;;;17.75;91.17
5413;BME280;2729;50.056;8.678;2023-04-29T11:44:54;100367.75;;;17.87;92.01
5413;BME280;2729;50.056;8.678;2023-04-29T11:47:26;100366.16;;;18.16;92.04
5413;BME280;2729;50.056;8.678;2023-04-29T11:49:52;100371.81;;;17.77;91.28
5413;BME280;2729;50.056;8.678;2023-04-29T11:52:19;100371.41;;;17.85;88.83
5413;BME280;2729;50.056;8.678;2023-04-29T11:54:46;100366.41;;;17.96;92.20
5413;BME280;2729;50.056;8.678;2023-04-29T11:57:12;100370.34;;;17.72;86.89
5413;BME280;2729;50.056;8.678;2023-04-29T11:59:41;100368.81;;;17.67;91.58
5413;BME280;2729;50.056;8.678;2023-04-29T12:02:10;100369.78;;;17.82;89.48
5413;BME280;2729;50.056;8.678;2023-04-29T12:04:46;100371.72;;;17.79;87.26
5413;BME280;2729;50.056;8.678;2023-04-29T12:07:16;100386.16;;;17.89;84.76
5413;BME280;2729;50.056;8.678;2023-04-29T12:09:43;100368.41;;;18.24;82.93
5413;BME280;2729;50.056;8.678;2023-04-29T12:12:10;100375.03;;;18.15;77.91
5413;BME280;2729;50.056;8.678;2023-04-29T12:14:37;100370.25;;;18.06;79.69
5413;BME280;2729;50.056;8.678;2023-04-29T12:17:04;100369.28;;;17.91;78.23
5413;BME280;2729;50.056;8.678;2023-04-29T12:19:30;100376.31;;;18.08;82.20
5413;BME280;2729;50.056;8.678;2023-04-29T12:22:01;100364.06;;;18.23;92.11
5413;BME280;2729;50.056;8.678;2023-04-29T12:24:27;100364.75;;;17.78;89.69
5413;BME280;2729;50.056;8.678;2023-04-29T12:26:54;100368.03;;;17.48;92.08
5413;BME280;2729;50.056;8.678;2023-04-29T12:29:21;100358.13;;;17.86;88.78
5413;BME280;2729;50.056;8.678;2023-04-29T12:31:49;100368.75;;;17.85;84.83
5413;BME280;2729;50.056;8.678;2023-04-29T12:34:15;100374.41;;;17.94;88.16
5413;BME280;2729;50.056;8.678;2023-04-29T12:36:42;100382.22;;;17.80;83.55
5413;BME280;2729;50.056;8.678;2023-04-29T12:39:12;100379.66;;;17.44;86.34
5413;BME280;2729;50.056;8.678;2023-04-29T12:41:39;100381.75;;;17.55;87.37
5413;BME280;2729;50.056;8.678;2023-04-29T12:44:06;100385.34;;;17.36;89.41
5413;BME280;2729;50.056;8.678;2023-04-29T12:46:39;100381.75;;;17.55;89.50
5413;BME280;2729;50.056;8.678;2023-04-29T12:49:06;100385.09;;;17.41;93.68
5413;BME280;2729;50.056;8.678;2023-04-29T12:51:33;100381.44;;;17.61;94.76
5413;BME280;2729;50.056;8.678;2023-04-29T12:54:03;100386.78;;;17.59;97.10
5413;BME280;2729;50.056;8.678;2023-04-29T12:56:31;100383.38;;;17.57;92.50
5413;BME280;2729;50.056;8.678;2023-04-29T12:59:07;100385.03;;;17.43;90.36
5413;BME280;2729;50.056;8.678;2023-04-29T13:01:35;100386.66;;;17.45;91.16
5413;BME280;2729;50.056;8.678;2023-04-29T13:04:01;100389.84;;;17.17;92.29
5413;BME280;2729;50.056;8.678;2023-04-29T13:06:27;100389.06;;;17.32;95.33
5413;BME280;2729;50.056;8.678;2023-04-29T13:08:53;100392.09;;;17.25;91.60
5413;BME280;2729;50.056;8.678;2023-04-29T13:11:19;100392.72;;;17.30;94.85
5413;BME280;2729;50.056;8.678;2023-04-29T13:13:45;100394.13;;;17.37;90.29
5413;BME280;2729;50.056;8.678;2023-04-29T13:16:11;100389.22;;;17.29;91.23
5413;BME280;2729;50.056;8.678;2023-04-29T13:18:37;100395.66;;;17.24;93.50
5413;BME280;2729;50.056;8.678;2023-04-29T13:21:03;100393.66;;;17.29;93.45
5413;BME280;2729;50.056;8.678;2023-04-29T13:23:29;100397.28;;;17.26;94.01
5413;BME280;2729;50.056;8.678;2023-04-29T13:25:55;100393.47;;;16.97;95.08
5413;BME280;2729;50.056;8.678;2023-04-29T13:28:21;100400.16;;;17.04;98.97
5413;BME280;2729;50.056;8.678;2023-04-29T13:30:48;100396.66;;;17.39;93.88
5413;BME280;2729;50.056;8.678;2023-04-29T13:33:15;100391.06;;;17.62;97.30